Latest Coastal Weather Observations for Friendly Beaches

IDT60701

Issued at 7:32 pm EST Wednesday 6 May 2026 (issued every 10 minutes, with the page automatically refreshed every 10 minutes)

About coastal observations | Map of coastal stations | Coastal observations for TAS | Marine services | Other Formats
Station Details ID: 092114 Name: FRIENDLY BEACHES Lat: -42.00 Lon: 148.28 Height: 55.0 m
Data from the previous 72 hours. | See also: Recent months at Friendly Beaches
Date/Time
EST
Wind Sea
Height
m
Swell Vis
km
Cloud Weather Temp
°C
Press
MSL
hPa
Rain since
9am
mm
Dir  Spd
kts
Gust
kts
Height
m
Period
s
Dir
06/07:30pm W 2 3 - - - - - - - 14.1 1005.9 0.0
06/07:00pm NW 3 7 - - - - - - - 14.4 1005.7 0.0
06/06:30pm WNW 3 7 - - - - - - - 14.4 1005.8 0.0
06/06:00pm WNW 5 11 - - - - - - - 14.7 1005.5 0.0
06/05:30pm WNW 3 7 - - - - - - - 14.5 1005.6 0.0
06/05:00pm NNW 7 13 - - - - - - - 15.6 1005.4 0.0
06/04:30pm N 9 17 - - - - - - - 16.3 1005.4 0.0
06/04:00pm NNW 7 13 - - - - - - - 17.6 1006.0 0.0
06/03:30pm NW 6 12 - - - - - - - 17.9 1006.5 0.0
06/03:00pm NW 9 16 - - - - - - - 18.3 1007.0 0.0
06/02:30pm WNW 6 16 - - - - - - - 18.4 1007.5 0.0
06/02:00pm WNW 5 11 - - - - - - - 18.4 1007.8 0.0
06/01:30pm WNW 6 12 - - - - - - - 18.4 1008.2 0.0
06/01:00pm WNW 10 18 - - - - - - - 18.2 1008.8 0.0
06/12:30pm WNW 7 16 - - - - - - - 19.7 1009.2 0.0
06/12:00pm W 8 13 - - - - - - - 19.3 1009.9 0.0
06/11:30am W 8 14 - - - - - - - 18.9 1010.5 0.0
06/11:00am WNW 13 21 - - - - - - - 18.3 1010.9 0.0
06/10:30am WNW 18 35 - - - - - - - 17.2 1010.6 0.0
06/10:00am WNW 16 28 - - - - - - - 17.6 1010.7 0.0
06/09:30am WNW 16 30 - - - - - - - 17.4 1010.8 0.0
06/09:21am WNW 15 28 - - - - - - - 17.2 1011.0 0.0
06/09:00am NW 10 21 - - - - - - - 16.6 1011.9 0.0
06/08:30am NW 10 23 - - - - - - - 15.8 1012.2 0.0
06/08:00am NW 7 11 - - - - - - - 14.8 1012.4 0.0
06/07:30am WNW 12 19 - - - - - - - 14.4 1012.3 0.0
06/07:00am WNW 11 20 - - - - - - - 14.3 1012.3 0.0
06/06:30am WNW 8 16 - - - - - - - 14.4 1012.6 0.0
06/06:00am WNW 9 15 - - - - - - - 14.2 1012.6 0.0
06/05:30am WNW 7 17 - - - - - - - 14.1 1012.9 0.0
06/05:00am WNW 5 12 - - - - - - - 13.5 1013.0 0.0
06/04:30am NW 4 7 - - - - - - - 13.5 1013.1 0.0
06/04:00am WNW 8 18 - - - - - - - 13.7 1013.2 0.0
06/03:30am NNW 4 7 - - - - - - - 11.9 1013.6 0.0
06/03:00am WNW 2 4 - - - - - - - 11.2 1013.8 0.0
06/02:30am WSW 1 4 - - - - - - - 11.7 1014.0 0.0
06/02:00am WNW 4 6 - - - - - - - 11.9 1014.4 0.0
06/01:30am WNW 9 13 - - - - - - - 12.2 1014.7 0.0
06/01:00am WNW 7 11 - - - - - - - 12.2 1014.9 0.0
06/12:30am WNW 8 13 - - - - - - - 12.0 1014.8 0.0
06/12:00am W 8 11 - - - - - - - 11.9 1014.8 0.0
 
Date/Time
EST
Wind Sea
Height
m
Swell Vis
km
Cloud Weather Temp
°C
Press
MSL
hPa
Rain since
9am
mm
Dir  Spd
kts
Gust
kts
Height
m
Period
s
Dir
05/11:30pm WNW 6 9 - - - - - - - 12.0 1015.3 0.0
05/11:00pm WNW 6 10 - - - - - - - 12.4 1015.5 0.0
05/10:30pm WNW 4 6 - - - - - - - 12.2 1015.7 0.0
05/10:00pm W 5 8 - - - - - - - 12.5 1015.9 0.0
05/09:30pm WNW 5 9 - - - - - - - 11.6 1015.9 0.0
05/09:00pm WNW 4 5 - - - - - - - 11.9 1015.9 0.0
05/08:30pm W 3 5 - - - - - - - 13.2 1015.8 0.0
05/08:00pm NW 3 7 - - - - - - - 14.1 1015.9 0.0
05/07:30pm NNW 4 7 - - - - - - - 14.6 1015.6 0.0
05/07:00pm NNW 4 7 - - - - - - - 14.7 1015.4 0.0
05/06:30pm N 6 9 - - - - - - - 15.3 1015.0 0.0
05/06:00pm NNW 4 7 - - - - - - - 15.3 1014.5 0.0
05/05:30pm NNW 4 5 - - - - - - - 15.6 1014.2 0.0
05/05:00pm CALM 0 0 - - - - - - - 16.1 1013.8 0.0
05/04:30pm WSW 1 4 - - - - - - - 17.8 1013.4 0.0
05/04:00pm WSW 3 5 - - - - - - - 17.9 1013.0 0.0
05/03:30pm WSW 6 10 - - - - - - - 17.9 1012.8 0.0
05/03:00pm WSW 3 6 - - - - - - - 18.1 1012.4 0.0
05/02:30pm SW 6 11 - - - - - - - 20.4 1012.1 0.0
05/02:00pm WSW 6 11 - - - - - - - 19.3 1011.7 0.0
05/01:30pm WSW 7 14 - - - - - - - 19.2 1011.5 0.0
05/01:00pm WSW 8 13 - - - - - - - 19.2 1011.3 0.0
05/12:30pm WSW 7 13 - - - - - - - 19.3 1011.3 0.0
05/12:00pm WSW 8 13 - - - - - - - 18.6 1011.5 0.0
05/11:30am WSW 7 13 - - - - - - - 18.5 1011.5 0.0
05/11:00am WSW 9 15 - - - - - - - 17.7 1011.3 0.0
05/10:30am WSW 7 12 - - - - - - - 17.4 1011.0 0.0
05/10:00am WSW 4 8 - - - - - - - 16.9 1010.8 0.0
05/09:30am WSW 5 8 - - - - - - - 15.1 1010.6 0.0
05/09:00am W 6 9 - - - - - - - 13.5 1010.5 0.2
05/08:30am WNW 6 8 - - - - - - - 12.5 1010.1 0.2
05/08:00am WNW 5 7 - - - - - - - 10.9 1009.7 0.2
05/07:30am WNW 4 5 - - - - - - - 11.1 1009.0 0.2
05/07:00am WNW 4 5 - - - - - - - 10.8 1008.5 0.2
05/06:30am WNW 5 5 - - - - - - - 11.0 1008.3 0.2
05/06:00am WNW 5 6 - - - - - - - 11.0 1008.1 0.2
05/05:30am WNW 4 5 - - - - - - - 11.5 1007.9 0.2
05/05:00am WNW 4 5 - - - - - - - 12.1 1007.8 0.2
05/04:30am W 3 3 - - - - - - - 12.1 1007.5 0.2
05/04:00am W 3 5 - - - - - - - 12.2 1007.3 0.2
05/03:30am CALM 0 1 - - - - - - - 12.4 1007.2 0.2
05/03:00am WSW 3 4 - - - - - - - 12.8 1007.4 0.2
05/02:30am NNW 3 5 - - - - - - - 13.1 1007.3 0.2
05/02:00am WSW 2 4 - - - - - - - 13.8 1007.4 0.2
05/01:30am NNW 6 10 - - - - - - - 14.8 1007.7 0.2
05/01:00am NNW 5 8 - - - - - - - 14.6 1008.0 0.2
05/12:30am N 6 9 - - - - - - - 14.2 1008.4 0.2
05/12:00am N 3 5 - - - - - - - 13.2 1008.4 0.2
 
Date/Time
EST
Wind Sea
Height
m
Swell Vis
km
Cloud Weather Temp
°C
Press
MSL
hPa
Rain since
9am
mm
Dir  Spd
kts
Gust
kts
Height
m
Period
s
Dir
04/11:30pm N 4 7 - - - - - - - 13.6 1008.5 0.2
04/11:00pm N 5 8 - - - - - - - 13.7 1008.7 0.2
04/10:30pm N 5 9 - - - - - - - 14.4 1009.0 0.2
04/10:00pm N 4 8 - - - - - - - 14.4 1009.4 0.2
04/09:30pm N 5 11 - - - - - - - 14.8 1009.2 0.2
04/09:00pm N 4 8 - - - - - - - 14.6 1009.2 0.2
04/08:30pm N 7 10 - - - - - - - 14.5 1008.9 0.2
04/08:00pm NNE 4 5 - - - - - - - 12.9 1009.1 0.2
04/07:30pm N 5 8 - - - - - - - 13.6 1009.0 0.2
04/07:00pm NNW 3 5 - - - - - - - 14.0 1009.1 0.2
04/06:30pm NNW 5 9 - - - - - - - 14.9 1009.0 0.2
04/06:00pm NNW 6 12 - - - - - - - 15.6 1008.8 0.2
04/05:30pm NNW 7 12 - - - - - - - 15.9 1008.7 0.2
04/05:00pm NW 7 14 - - - - - - - 16.8 1008.6 0.2
04/04:30pm NNW 6 11 - - - - - - - 17.1 1008.1 0.2
04/04:00pm NNW 7 11 - - - - - - - 18.4 1007.7 0.2
04/03:30pm NNE 6 9 - - - - - - - 17.4 1007.7 0.2
04/03:00pm NNE 9 15 - - - - - - - 18.6 1007.7 0.2
04/02:30pm NNE 6 9 - - - - - - - 19.4 1007.7 0.2
04/02:00pm N 4 8 - - - - - - - 18.7 1008.0 0.2
04/01:30pm NNE 10 16 - - - - - - - 18.3 1008.1 0.2
04/01:00pm NNE 9 14 - - - - - - - 18.5 1008.5 0.2
04/12:30pm NNE 10 16 - - - - - - - 18.8 1009.0 0.2
04/12:00pm NNE 8 13 - - - - - - - 18.9 1009.6 0.2
04/11:30am NNE 6 9 - - - - - - - 19.8 1010.1 0.2
04/11:00am NNE 7 11 - - - - - - - 20.0 1010.6 0.2
04/10:30am NE 6 8 - - - - - - - 18.9 1010.7 0.0
04/10:00am NNE 1 6 - - - - - - - 18.7 1010.5 0.0
04/09:30am WNW 2 5 - - - - - - - 17.3 1010.5 0.0
04/09:00am N 2 5 - - - - - - - 16.4 1010.5 14.2
04/08:30am WNW 6 9 - - - - - - - 15.5 1010.4 14.2
04/08:00am WNW 5 7 - - - - - - - 14.4 1010.5 14.2
04/07:30am WNW 7 10 - - - - - - - 14.2 1010.2 14.2
04/07:00am NW 7 11 - - - - - - - 14.2 1009.7 14.2
04/06:30am NW 6 9 - - - - - - - 13.9 1009.5 14.2
04/06:00am WNW 6 10 - - - - - - - 13.9 1009.1 14.2
04/05:30am W 4 7 - - - - - - - 13.7 1008.9 14.2
04/05:00am W 3 5 - - - - - - - 13.6 1008.9 14.2
04/04:30am W 5 9 - - - - - - - 13.7 1008.9 14.2
04/04:00am WNW 5 9 - - - - - - - 14.0 1008.7 14.2
04/03:30am W 3 5 - - - - - - - 15.2 1008.4 14.2
04/03:00am WSW 2 3 - - - - - - - 15.4 1008.4 14.2
04/02:30am CALM 0 0 - - - - - - - 15.6 1008.9 14.2
04/02:00am NW 1 3 - - - - - - - 15.7 1008.7 14.2
04/01:30am NNW 5 7 - - - - - - - 15.9 1009.4 14.2
04/01:00am NNE 7 9 - - - - - - - 16.1 1009.3 14.2
04/12:30am NNE 5 7 - - - - - - - 15.3 1009.3 14.2
04/12:00am NNE 9 13 - - - - - - Recent precip. 15.6 1009.9 14.2
 
Date/Time
EST
Wind Sea
Height
m
Swell Vis
km
Cloud Weather Temp
°C
Press
MSL
hPa
Rain since
9am
mm
Dir  Spd
kts
Gust
kts
Height
m
Period
s
Dir
03/11:30pm NNE 5 9 - - - - - - - 15.7 1010.1 14.2
03/11:00pm NE 6 11 - - - - - - - 15.5 1010.5 12.0
03/10:30pm NNW 6 10 - - - - - - - 15.6 1011.7 8.8
03/10:00pm N 6 11 - - - - - - - 16.2 1011.9 3.0
03/09:30pm N 8 12 - - - - - - - 16.6 1011.6 1.4
03/09:00pm N 6 12 - - - - - - - 17.3 1011.0 1.0
03/08:30pm N 6 10 - - - - - - - 17.3 1011.1 1.0
03/08:00pm NNW 3 6 - - - - - - - 16.5 1010.8 1.0

Other formats

Comma delimited format used in spreadsheet applications
http://www.bom.gov.au/fwo/IDT60701/IDT60701.94987.axf

JavaScript Object Notation format (JSON) in row-major order
http://www.bom.gov.au/fwo/IDT60701/IDT60701.94987.json

Data quality

Most of these data are generated automatically and are frequently updated. Quality checks on data are not normally performed. It is possible for incorrect values to appear. Refer to information at About Latest Weather Observations and please check the disclaimer before using these data.